sensor_id;sensor_type;location;lat;lon;timestamp;temperature;humidity
22532;DHT22;11432;46.924;7.114;2022-10-18T00:00:38;15.10;99.90
22532;DHT22;11432;46.924;7.114;2022-10-18T00:03:03;15.10;99.90
22532;DHT22;11432;46.924;7.114;2022-10-18T00:05:29;15.10;99.90
22532;DHT22;11432;46.924;7.114;2022-10-18T00:07:55;15.10;99.90
22532;DHT22;11432;46.924;7.114;2022-10-18T00:10:20;15.00;99.90
22532;DHT22;11432;46.924;7.114;2022-10-18T00:12:46;15.00;99.90
22532;DHT22;11432;46.924;7.114;2022-10-18T00:15:11;15.00;99.90
22532;DHT22;11432;46.924;7.114;2022-10-18T00:17:38;15.00;99.90
22532;DHT22;11432;46.924;7.114;2022-10-18T00:20:05;15.00;99.90
22532;DHT22;11432;46.924;7.114;2022-10-18T00:22:32;15.00;99.90
22532;DHT22;11432;46.924;7.114;2022-10-18T00:24:58;15.00;99.90
22532;DHT22;11432;46.924;7.114;2022-10-18T00:27:23;15.00;99.90
22532;DHT22;11432;46.924;7.114;2022-10-18T00:29:52;15.00;99.90
22532;DHT22;11432;46.924;7.114;2022-10-18T00:32:17;15.00;99.90
22532;DHT22;11432;46.924;7.114;2022-10-18T00:34:43;15.00;99.90
22532;DHT22;11432;46.924;7.114;2022-10-18T00:37:09;14.90;99.90
22532;DHT22;11432;46.924;7.114;2022-10-18T00:39:34;15.00;99.90
22532;DHT22;11432;46.924;7.114;2022-10-18T00:42:00;15.00;99.90
22532;DHT22;11432;46.924;7.114;2022-10-18T00:47:00;15.00;99.90
22532;DHT22;11432;46.924;7.114;2022-10-18T00:49:39;15.00;99.90
22532;DHT22;11432;46.924;7.114;2022-10-18T00:52:14;15.00;99.90
22532;DHT22;11432;46.924;7.114;2022-10-18T00:54:43;15.00;99.90
22532;DHT22;11432;46.924;7.114;2022-10-18T00:57:09;14.90;99.90
22532;DHT22;11432;46.924;7.114;2022-10-18T00:59:36;14.90;99.90
22532;DHT22;11432;46.924;7.114;2022-10-18T01:02:03;14.90;99.90
22532;DHT22;11432;46.924;7.114;2022-10-18T01:04:28;14.80;99.90
22532;DHT22;11432;46.924;7.114;2022-10-18T01:07:26;14.80;99.90
22532;DHT22;11432;46.924;7.114;2022-10-18T01:15:37;14.80;99.90
22532;DHT22;11432;46.924;7.114;2022-10-18T01:18:13;14.80;99.90
22532;DHT22;11432;46.924;7.114;2022-10-18T01:26:15;14.70;99.90
22532;DHT22;11432;46.924;7.114;2022-10-18T01:28:59;14.70;99.90
22532;DHT22;11432;46.924;7.114;2022-10-18T01:31:40;14.70;99.90
22532;DHT22;11432;46.924;7.114;2022-10-18T01:34:09;14.70;99.90
22532;DHT22;11432;46.924;7.114;2022-10-18T01:36:42;14.70;99.90
22532;DHT22;11432;46.924;7.114;2022-10-18T01:39:14;14.60;99.90
22532;DHT22;11432;46.924;7.114;2022-10-18T01:41:43;14.60;99.90
22532;DHT22;11432;46.924;7.114;2022-10-18T01:44:16;14.60;99.90
22532;DHT22;11432;46.924;7.114;2022-10-18T01:46:43;14.60;99.90
22532;DHT22;11432;46.924;7.114;2022-10-18T01:49:10;14.60;99.90
22532;DHT22;11432;46.924;7.114;2022-10-18T01:51:36;14.60;99.90
22532;DHT22;11432;46.924;7.114;2022-10-18T01:54:02;14.60;99.90
22532;DHT22;11432;46.924;7.114;2022-10-18T01:56:46;14.50;99.90
22532;DHT22;11432;46.924;7.114;2022-10-18T02:02:12;14.40;99.90
22532;DHT22;11432;46.924;7.114;2022-10-18T02:07:36;14.30;99.90
22532;DHT22;11432;46.924;7.114;2022-10-18T02:10:08;14.30;99.90
22532;DHT22;11432;46.924;7.114;2022-10-18T02:12:36;14.20;99.90
22532;DHT22;11432;46.924;7.114;2022-10-18T02:15:06;14.20;99.90
22532;DHT22;11432;46.924;7.114;2022-10-18T02:17:34;14.20;99.90
22532;DHT22;11432;46.924;7.114;2022-10-18T02:20:01;14.10;99.90
22532;DHT22;11432;46.924;7.114;2022-10-18T02:22:30;14.10;99.90
22532;DHT22;11432;46.924;7.114;2022-10-18T02:24:58;14.10;99.90
22532;DHT22;11432;46.924;7.114;2022-10-18T02:27:26;14.00;99.90
22532;DHT22;11432;46.924;7.114;2022-10-18T02:29:51;13.90;99.90
22532;DHT22;11432;46.924;7.114;2022-10-18T02:32:28;13.90;99.90
22532;DHT22;11432;46.924;7.114;2022-10-18T02:35:19;13.90;99.90
22532;DHT22;11432;46.924;7.114;2022-10-18T02:37:49;13.80;99.90
22532;DHT22;11432;46.924;7.114;2022-10-18T02:40:17;13.70;99.90
22532;DHT22;11432;46.924;7.114;2022-10-18T02:42:49;13.70;99.90
22532;DHT22;11432;46.924;7.114;2022-10-18T02:45:16;13.70;99.90
22532;DHT22;11432;46.924;7.114;2022-10-18T02:47:42;13.70;99.90
22532;DHT22;11432;46.924;7.114;2022-10-18T02:50:08;13.70;99.90
22532;DHT22;11432;46.924;7.114;2022-10-18T02:52:34;13.60;99.90
22532;DHT22;11432;46.924;7.114;2022-10-18T02:54:59;13.50;99.90
22532;DHT22;11432;46.924;7.114;2022-10-18T02:57:26;13.60;99.90
22532;DHT22;11432;46.924;7.114;2022-10-18T02:59:51;13.60;99.90
22532;DHT22;11432;46.924;7.114;2022-10-18T03:02:17;13.60;99.90
22532;DHT22;11432;46.924;7.114;2022-10-18T03:04:42;13.50;99.90
22532;DHT22;11432;46.924;7.114;2022-10-18T03:07:08;13.50;99.90
22532;DHT22;11432;46.924;7.114;2022-10-18T03:09:34;13.50;99.90
22532;DHT22;11432;46.924;7.114;2022-10-18T03:11:59;13.40;99.90
22532;DHT22;11432;46.924;7.114;2022-10-18T03:14:25;13.40;99.90
22532;DHT22;11432;46.924;7.114;2022-10-18T03:16:50;13.30;99.90
22532;DHT22;11432;46.924;7.114;2022-10-18T03:19:16;13.30;99.90
22532;DHT22;11432;46.924;7.114;2022-10-18T03:21:42;13.30;99.90
22532;DHT22;11432;46.924;7.114;2022-10-18T03:24:07;13.30;99.90
22532;DHT22;11432;46.924;7.114;2022-10-18T03:26:33;13.20;99.90
22532;DHT22;11432;46.924;7.114;2022-10-18T03:28:58;13.20;99.90
22532;DHT22;11432;46.924;7.114;2022-10-18T03:31:24;13.20;99.90
22532;DHT22;11432;46.924;7.114;2022-10-18T03:33:50;13.10;99.90
22532;DHT22;11432;46.924;7.114;2022-10-18T03:36:15;13.10;99.90
22532;DHT22;11432;46.924;7.114;2022-10-18T03:38:41;13.10;99.90
22532;DHT22;11432;46.924;7.114;2022-10-18T03:41:07;13.00;99.90
22532;DHT22;11432;46.924;7.114;2022-10-18T03:43:33;13.00;99.90
22532;DHT22;11432;46.924;7.114;2022-10-18T03:45:59;13.00;99.90
22532;DHT22;11432;46.924;7.114;2022-10-18T03:48:24;13.00;99.90
22532;DHT22;11432;46.924;7.114;2022-10-18T03:50:50;12.90;99.90
22532;DHT22;11432;46.924;7.114;2022-10-18T03:53:16;12.90;99.90
22532;DHT22;11432;46.924;7.114;2022-10-18T03:55:41;12.90;99.90
22532;DHT22;11432;46.924;7.114;2022-10-18T03:58:07;12.90;99.90
22532;DHT22;11432;46.924;7.114;2022-10-18T04:00:33;12.80;99.90
22532;DHT22;11432;46.924;7.114;2022-10-18T04:02:59;12.80;99.90
22532;DHT22;11432;46.924;7.114;2022-10-18T04:05:25;12.80;99.90
22532;DHT22;11432;46.924;7.114;2022-10-18T04:07:55;12.80;99.90
22532;DHT22;11432;46.924;7.114;2022-10-18T04:10:21;12.90;99.90
22532;DHT22;11432;46.924;7.114;2022-10-18T04:12:47;13.00;99.90
22532;DHT22;11432;46.924;7.114;2022-10-18T04:15:12;13.00;99.90
22532;DHT22;11432;46.924;7.114;2022-10-18T04:17:38;13.00;99.90
22532;DHT22;11432;46.924;7.114;2022-10-18T04:20:04;13.00;99.90
22532;DHT22;11432;46.924;7.114;2022-10-18T04:22:30;12.90;99.90
22532;DHT22;11432;46.924;7.114;2022-10-18T04:24:55;12.90;99.90
22532;DHT22;11432;46.924;7.114;2022-10-18T04:27:21;13.00;99.90
22532;DHT22;11432;46.924;7.114;2022-10-18T04:29:47;12.90;99.90
22532;DHT22;11432;46.924;7.114;2022-10-18T04:32:12;13.00;99.90
22532;DHT22;11432;46.924;7.114;2022-10-18T04:34:38;12.90;99.90
22532;DHT22;11432;46.924;7.114;2022-10-18T04:37:04;12.90;99.90
22532;DHT22;11432;46.924;7.114;2022-10-18T04:39:29;13.00;99.90
22532;DHT22;11432;46.924;7.114;2022-10-18T04:41:55;13.00;99.90
22532;DHT22;11432;46.924;7.114;2022-10-18T04:44:21;13.10;99.90
22532;DHT22;11432;46.924;7.114;2022-10-18T04:46:46;13.10;99.90
22532;DHT22;11432;46.924;7.114;2022-10-18T04:49:12;13.10;99.90
22532;DHT22;11432;46.924;7.114;2022-10-18T04:51:37;13.00;99.90
22532;DHT22;11432;46.924;7.114;2022-10-18T04:54:03;13.00;99.90
22532;DHT22;11432;46.924;7.114;2022-10-18T04:56:29;13.00;99.90
22532;DHT22;11432;46.924;7.114;2022-10-18T04:58:54;13.00;99.90
22532;DHT22;11432;46.924;7.114;2022-10-18T05:01:20;12.90;99.90
22532;DHT22;11432;46.924;7.114;2022-10-18T05:03:53;12.80;99.90
22532;DHT22;11432;46.924;7.114;2022-10-18T05:06:19;12.70;99.90
22532;DHT22;11432;46.924;7.114;2022-10-18T05:08:45;12.70;99.90
22532;DHT22;11432;46.924;7.114;2022-10-18T05:11:11;12.70;99.90
22532;DHT22;11432;46.924;7.114;2022-10-18T05:13:36;12.70;99.90
22532;DHT22;11432;46.924;7.114;2022-10-18T05:16:03;12.70;99.90
22532;DHT22;11432;46.924;7.114;2022-10-18T05:18:29;12.70;99.90
22532;DHT22;11432;46.924;7.114;2022-10-18T05:20:55;12.60;99.90
22532;DHT22;11432;46.924;7.114;2022-10-18T05:23:20;12.70;99.90
22532;DHT22;11432;46.924;7.114;2022-10-18T05:25:46;12.70;99.90
22532;DHT22;11432;46.924;7.114;2022-10-18T05:28:12;12.60;99.90
22532;DHT22;11432;46.924;7.114;2022-10-18T05:30:39;12.60;99.90
22532;DHT22;11432;46.924;7.114;2022-10-18T05:33:05;12.60;99.90
22532;DHT22;11432;46.924;7.114;2022-10-18T05:35:30;12.60;99.90
22532;DHT22;11432;46.924;7.114;2022-10-18T05:37:56;12.50;99.90
22532;DHT22;11432;46.924;7.114;2022-10-18T05:40:22;12.50;99.90
22532;DHT22;11432;46.924;7.114;2022-10-18T05:42:50;12.50;99.90
22532;DHT22;11432;46.924;7.114;2022-10-18T05:45:16;12.50;99.90
22532;DHT22;11432;46.924;7.114;2022-10-18T05:47:42;12.50;99.90
22532;DHT22;11432;46.924;7.114;2022-10-18T05:50:08;12.50;99.90
22532;DHT22;11432;46.924;7.114;2022-10-18T05:52:33;12.60;99.90
22532;DHT22;11432;46.924;7.114;2022-10-18T05:54:59;12.60;99.90
22532;DHT22;11432;46.924;7.114;2022-10-18T05:57:24;12.60;99.90
22532;DHT22;11432;46.924;7.114;2022-10-18T05:59:50;12.70;99.90
22532;DHT22;11432;46.924;7.114;2022-10-18T06:02:16;12.70;99.90
22532;DHT22;11432;46.924;7.114;2022-10-18T06:04:41;12.70;99.90
22532;DHT22;11432;46.924;7.114;2022-10-18T06:07:08;12.70;99.90
22532;DHT22;11432;46.924;7.114;2022-10-18T06:09:34;12.80;99.90
22532;DHT22;11432;46.924;7.114;2022-10-18T06:12:00;12.70;99.90
22532;DHT22;11432;46.924;7.114;2022-10-18T06:14:25;12.70;99.90
22532;DHT22;11432;46.924;7.114;2022-10-18T06:16:51;12.70;99.90
22532;DHT22;11432;46.924;7.114;2022-10-18T06:19:17;12.70;99.90
22532;DHT22;11432;46.924;7.114;2022-10-18T06:21:43;12.70;99.90
22532;DHT22;11432;46.924;7.114;2022-10-18T06:24:08;12.80;99.90
22532;DHT22;11432;46.924;7.114;2022-10-18T06:26:34;12.80;99.90
22532;DHT22;11432;46.924;7.114;2022-10-18T06:28:59;12.80;99.90
22532;DHT22;11432;46.924;7.114;2022-10-18T06:31:25;12.90;99.90
22532;DHT22;11432;46.924;7.114;2022-10-18T06:33:51;13.00;99.90
22532;DHT22;11432;46.924;7.114;2022-10-18T06:36:18;13.10;99.90
22532;DHT22;11432;46.924;7.114;2022-10-18T06:38:46;13.20;99.90
22532;DHT22;11432;46.924;7.114;2022-10-18T06:41:12;13.30;99.90
22532;DHT22;11432;46.924;7.114;2022-10-18T06:43:38;13.40;99.90
22532;DHT22;11432;46.924;7.114;2022-10-18T06:46:05;13.50;99.90
22532;DHT22;11432;46.924;7.114;2022-10-18T06:48:35;13.50;99.90
22532;DHT22;11432;46.924;7.114;2022-10-18T06:51:04;13.60;99.90
22532;DHT22;11432;46.924;7.114;2022-10-18T06:53:32;13.60;99.90
22532;DHT22;11432;46.924;7.114;2022-10-18T06:56:04;13.70;99.90
22532;DHT22;11432;46.924;7.114;2022-10-18T06:58:30;13.80;99.90
22532;DHT22;11432;46.924;7.114;2022-10-18T07:00:56;13.80;99.90
22532;DHT22;11432;46.924;7.114;2022-10-18T07:03:22;13.90;99.90
22532;DHT22;11432;46.924;7.114;2022-10-18T07:05:48;13.90;99.90
22532;DHT22;11432;46.924;7.114;2022-10-18T07:08:14;14.00;99.90
22532;DHT22;11432;46.924;7.114;2022-10-18T07:10:40;14.00;99.90
22532;DHT22;11432;46.924;7.114;2022-10-18T07:13:05;14.10;99.90
22532;DHT22;11432;46.924;7.114;2022-10-18T07:15:31;14.20;99.90
22532;DHT22;11432;46.924;7.114;2022-10-18T07:17:57;14.20;99.90
22532;DHT22;11432;46.924;7.114;2022-10-18T07:20:22;14.30;99.90
22532;DHT22;11432;46.924;7.114;2022-10-18T07:22:48;14.30;99.90
22532;DHT22;11432;46.924;7.114;2022-10-18T07:25:14;14.40;99.90
22532;DHT22;11432;46.924;7.114;2022-10-18T07:27:41;14.40;99.90
22532;DHT22;11432;46.924;7.114;2022-10-18T07:30:09;14.50;99.90
22532;DHT22;11432;46.924;7.114;2022-10-18T07:32:35;14.50;99.90
22532;DHT22;11432;46.924;7.114;2022-10-18T07:35:01;14.50;99.90
22532;DHT22;11432;46.924;7.114;2022-10-18T07:37:27;14.60;99.90
22532;DHT22;11432;46.924;7.114;2022-10-18T07:39:53;14.60;99.90
22532;DHT22;11432;46.924;7.114;2022-10-18T07:42:18;14.70;99.90
22532;DHT22;11432;46.924;7.114;2022-10-18T07:44:44;14.80;99.90
22532;DHT22;11432;46.924;7.114;2022-10-18T07:47:10;14.80;99.90
22532;DHT22;11432;46.924;7.114;2022-10-18T07:49:35;14.90;99.90
22532;DHT22;11432;46.924;7.114;2022-10-18T07:52:01;14.90;99.90
22532;DHT22;11432;46.924;7.114;2022-10-18T07:54:26;14.90;99.90
22532;DHT22;11432;46.924;7.114;2022-10-18T07:56:52;15.00;99.90
22532;DHT22;11432;46.924;7.114;2022-10-18T07:59:18;15.00;99.90
22532;DHT22;11432;46.924;7.114;2022-10-18T08:01:43;14.90;99.90
22532;DHT22;11432;46.924;7.114;2022-10-18T08:04:09;14.90;99.90
22532;DHT22;11432;46.924;7.114;2022-10-18T08:06:35;14.90;99.90
22532;DHT22;11432;46.924;7.114;2022-10-18T08:09:00;14.90;99.90
22532;DHT22;11432;46.924;7.114;2022-10-18T08:11:26;15.00;99.90
22532;DHT22;11432;46.924;7.114;2022-10-18T08:13:52;14.90;99.90
22532;DHT22;11432;46.924;7.114;2022-10-18T08:16:21;14.90;99.90
22532;DHT22;11432;46.924;7.114;2022-10-18T08:18:47;14.90;99.90
22532;DHT22;11432;46.924;7.114;2022-10-18T08:21:14;14.90;99.90
22532;DHT22;11432;46.924;7.114;2022-10-18T08:23:40;15.00;99.90
22532;DHT22;11432;46.924;7.114;2022-10-18T08:26:10;15.00;99.90
22532;DHT22;11432;46.924;7.114;2022-10-18T08:28:36;15.10;99.90
22532;DHT22;11432;46.924;7.114;2022-10-18T08:31:13;15.40;99.90
22532;DHT22;11432;46.924;7.114;2022-10-18T08:33:41;15.50;99.90
22532;DHT22;11432;46.924;7.114;2022-10-18T08:36:10;15.80;99.90
22532;DHT22;11432;46.924;7.114;2022-10-18T08:38:38;15.70;99.90
22532;DHT22;11432;46.924;7.114;2022-10-18T08:41:26;15.60;99.90
22532;DHT22;11432;46.924;7.114;2022-10-18T08:44:16;15.60;99.90
22532;DHT22;11432;46.924;7.114;2022-10-18T08:46:48;15.50;99.90
22532;DHT22;11432;46.924;7.114;2022-10-18T08:49:28;15.50;99.90
22532;DHT22;11432;46.924;7.114;2022-10-18T08:51:56;15.60;99.90
22532;DHT22;11432;46.924;7.114;2022-10-18T08:54:42;15.60;99.90
22532;DHT22;11432;46.924;7.114;2022-10-18T08:57:14;15.70;99.90
22532;DHT22;11432;46.924;7.114;2022-10-18T08:59:40;15.80;99.90
22532;DHT22;11432;46.924;7.114;2022-10-18T09:14:02;16.30;99.90
22532;DHT22;11432;46.924;7.114;2022-10-18T09:22:12;17.00;99.90
22532;DHT22;11432;46.924;7.114;2022-10-18T09:24:45;16.90;99.90
22532;DHT22;11432;46.924;7.114;2022-10-18T09:27:17;16.70;99.90
22532;DHT22;11432;46.924;7.114;2022-10-18T09:30:04;16.40;99.90
22532;DHT22;11432;46.924;7.114;2022-10-18T09:35:19;16.80;99.90
22532;DHT22;11432;46.924;7.114;2022-10-18T09:37:46;17.10;1.00
22532;DHT22;11432;46.924;7.114;2022-10-18T09:40:22;17.50;1.00
22532;DHT22;11432;46.924;7.114;2022-10-18T09:43:00;17.90;1.00
22532;DHT22;11432;46.924;7.114;2022-10-18T09:48:17;18.40;1.00
22532;DHT22;11432;46.924;7.114;2022-10-18T09:51:03;18.40;1.00
22532;DHT22;11432;46.924;7.114;2022-10-18T09:56:48;18.40;1.00
22532;DHT22;11432;46.924;7.114;2022-10-18T09:59:33;18.20;1.00
22532;DHT22;11432;46.924;7.114;2022-10-18T10:02:00;18.10;1.00
22532;DHT22;11432;46.924;7.114;2022-10-18T10:04:25;18.00;1.00
22532;DHT22;11432;46.924;7.114;2022-10-18T10:06:53;17.90;1.00
22532;DHT22;11432;46.924;7.114;2022-10-18T10:09:46;17.90;1.00
22532;DHT22;11432;46.924;7.114;2022-10-18T10:12:25;17.70;1.00
22532;DHT22;11432;46.924;7.114;2022-10-18T10:14:51;17.50;1.00
22532;DHT22;11432;46.924;7.114;2022-10-18T10:17:23;17.60;1.00
22532;DHT22;11432;46.924;7.114;2022-10-18T10:20:01;17.90;1.00
22532;DHT22;11432;46.924;7.114;2022-10-18T10:22:38;18.40;1.00
22532;DHT22;11432;46.924;7.114;2022-10-18T10:25:05;18.60;1.00
22532;DHT22;11432;46.924;7.114;2022-10-18T10:29:58;18.70;1.00
22532;DHT22;11432;46.924;7.114;2022-10-18T10:32:27;19.00;1.00
22532;DHT22;11432;46.924;7.114;2022-10-18T10:34:54;19.50;1.00
22532;DHT22;11432;46.924;7.114;2022-10-18T10:43:05;19.20;1.00
22532;DHT22;11432;46.924;7.114;2022-10-18T10:45:38;19.50;1.00
22532;DHT22;11432;46.924;7.114;2022-10-18T10:48:12;19.90;1.00
22532;DHT22;11432;46.924;7.114;2022-10-18T10:50:54;19.60;1.00
22532;DHT22;11432;46.924;7.114;2022-10-18T10:56:00;19.60;1.00
22532;DHT22;11432;46.924;7.114;2022-10-18T10:58:27;20.30;1.00
22532;DHT22;11432;46.924;7.114;2022-10-18T11:00:55;21.30;1.00
22532;DHT22;11432;46.924;7.114;2022-10-18T11:03:22;20.90;1.00
22532;DHT22;11432;46.924;7.114;2022-10-18T11:05:54;21.60;1.00
22532;DHT22;11432;46.924;7.114;2022-10-18T11:08:27;21.60;1.00
22532;DHT22;11432;46.924;7.114;2022-10-18T11:19:35;19.80;99.90
22532;DHT22;11432;46.924;7.114;2022-10-18T11:22:04;19.90;99.90
22532;DHT22;11432;46.924;7.114;2022-10-18T11:24:33;20.10;99.90
22532;DHT22;11432;46.924;7.114;2022-10-18T11:27:19;20.10;99.90
22532;DHT22;11432;46.924;7.114;2022-10-18T11:35:38;23.30;1.00
22532;DHT22;11432;46.924;7.114;2022-10-18T12:03:27;21.60;1.00
22532;DHT22;11432;46.924;7.114;2022-10-18T12:05:56;21.20;1.00
22532;DHT22;11432;46.924;7.114;2022-10-18T12:11:02;22.10;1.00
22532;DHT22;11432;46.924;7.114;2022-10-18T12:16:37;22.10;1.00
22532;DHT22;11432;46.924;7.114;2022-10-18T12:19:12;21.90;1.00
22532;DHT22;11432;46.924;7.114;2022-10-18T12:21:41;22.00;1.00
22532;DHT22;11432;46.924;7.114;2022-10-18T12:24:16;22.40;1.00
22532;DHT22;11432;46.924;7.114;2022-10-18T12:26:45;22.20;99.90
22532;DHT22;11432;46.924;7.114;2022-10-18T12:31:58;23.10;1.00
22532;DHT22;11432;46.924;7.114;2022-10-18T12:34:33;23.10;1.00
22532;DHT22;11432;46.924;7.114;2022-10-18T12:42:04;25.50;1.00
22532;DHT22;11432;46.924;7.114;2022-10-18T12:44:31;25.90;1.00
22532;DHT22;11432;46.924;7.114;2022-10-18T12:47:01;26.00;1.00
22532;DHT22;11432;46.924;7.114;2022-10-18T12:49:37;25.80;1.00
22532;DHT22;11432;46.924;7.114;2022-10-18T12:52:05;25.50;1.00
22532;DHT22;11432;46.924;7.114;2022-10-18T12:54:37;25.80;1.00
22532;DHT22;11432;46.924;7.114;2022-10-18T12:57:05;26.10;1.00
22532;DHT22;11432;46.924;7.114;2022-10-18T12:59:41;26.00;1.00
22532;DHT22;11432;46.924;7.114;2022-10-18T13:02:17;26.00;1.00
22532;DHT22;11432;46.924;7.114;2022-10-18T13:04:44;26.10;1.00
22532;DHT22;11432;46.924;7.114;2022-10-18T13:07:11;26.00;1.00
22532;DHT22;11432;46.924;7.114;2022-10-18T13:18:15;25.70;1.00
22532;DHT22;11432;46.924;7.114;2022-10-18T13:21:09;26.00;1.00
22532;DHT22;11432;46.924;7.114;2022-10-18T13:26:50;26.50;1.00
22532;DHT22;11432;46.924;7.114;2022-10-18T13:34:33;25.20;1.00
22532;DHT22;11432;46.924;7.114;2022-10-18T13:39:35;24.30;1.00
22532;DHT22;11432;46.924;7.114;2022-10-18T13:52:28;24.20;99.90
22532;DHT22;11432;46.924;7.114;2022-10-18T13:58:27;25.80;99.90
22532;DHT22;11432;46.924;7.114;2022-10-18T14:04:15;26.40;1.00
22532;DHT22;11432;46.924;7.114;2022-10-18T14:06:41;26.00;1.00
22532;DHT22;11432;46.924;7.114;2022-10-18T14:09:22;25.80;1.00
22532;DHT22;11432;46.924;7.114;2022-10-18T14:12:10;26.60;1.00
22532;DHT22;11432;46.924;7.114;2022-10-18T14:14:44;26.70;1.00
22532;DHT22;11432;46.924;7.114;2022-10-18T14:20:32;25.50;1.00
22532;DHT22;11432;46.924;7.114;2022-10-18T14:23:20;24.60;1.00
22532;DHT22;11432;46.924;7.114;2022-10-18T14:25:48;23.50;99.90
22532;DHT22;11432;46.924;7.114;2022-10-18T14:28:24;22.80;1.00
22532;DHT22;11432;46.924;7.114;2022-10-18T14:31:00;22.80;1.00
22532;DHT22;11432;46.924;7.114;2022-10-18T14:33:31;22.60;1.00
22532;DHT22;11432;46.924;7.114;2022-10-18T14:36:15;22.30;1.00
22532;DHT22;11432;46.924;7.114;2022-10-18T14:38:55;22.20;1.00
22532;DHT22;11432;46.924;7.114;2022-10-18T14:43:03;22.20;1.00
22532;DHT22;11432;46.924;7.114;2022-10-18T14:45:29;22.10;1.00
22532;DHT22;11432;46.924;7.114;2022-10-18T14:50:32;22.10;1.00
22532;DHT22;11432;46.924;7.114;2022-10-18T14:53:04;22.10;1.00
22532;DHT22;11432;46.924;7.114;2022-10-18T14:55:31;22.00;1.00
22532;DHT22;11432;46.924;7.114;2022-10-18T14:57:57;22.00;1.00
22532;DHT22;11432;46.924;7.114;2022-10-18T15:00:34;21.90;1.00
22532;DHT22;11432;46.924;7.114;2022-10-18T15:03:03;21.80;1.00
22532;DHT22;11432;46.924;7.114;2022-10-18T15:05:29;21.80;1.00
22532;DHT22;11432;46.924;7.114;2022-10-18T15:07:56;21.70;1.00
22532;DHT22;11432;46.924;7.114;2022-10-18T15:10:32;21.70;1.00
22532;DHT22;11432;46.924;7.114;2022-10-18T15:13:00;21.70;1.00
22532;DHT22;11432;46.924;7.114;2022-10-18T15:15:31;21.70;1.00
22532;DHT22;11432;46.924;7.114;2022-10-18T15:17:58;21.70;1.00
22532;DHT22;11432;46.924;7.114;2022-10-18T15:20:29;21.70;1.00
22532;DHT22;11432;46.924;7.114;2022-10-18T15:25:48;21.50;1.00
22532;DHT22;11432;46.924;7.114;2022-10-18T15:30:53;21.40;1.00
22532;DHT22;11432;46.924;7.114;2022-10-18T15:33:23;21.30;1.00
22532;DHT22;11432;46.924;7.114;2022-10-18T15:35:51;21.30;1.00
22532;DHT22;11432;46.924;7.114;2022-10-18T15:40:45;21.30;1.00
22532;DHT22;11432;46.924;7.114;2022-10-18T15:48:27;21.20;1.00
22532;DHT22;11432;46.924;7.114;2022-10-18T15:50:57;21.10;5.00
22532;DHT22;11432;46.924;7.114;2022-10-18T15:53:51;21.10;9.20
22532;DHT22;11432;46.924;7.114;2022-10-18T15:56:32;21.00;13.80
22532;DHT22;11432;46.924;7.114;2022-10-18T15:59:01;21.00;85.30
22532;DHT22;11432;46.924;7.114;2022-10-18T16:01:36;20.90;61.70
22532;DHT22;11432;46.924;7.114;2022-10-18T16:04:17;20.90;99.10
22532;DHT22;11432;46.924;7.114;2022-10-18T16:06:43;20.80;99.90
22532;DHT22;11432;46.924;7.114;2022-10-18T16:09:15;20.80;99.90
22532;DHT22;11432;46.924;7.114;2022-10-18T16:11:41;20.70;99.90
22532;DHT22;11432;46.924;7.114;2022-10-18T16:14:06;20.60;99.90
22532;DHT22;11432;46.924;7.114;2022-10-18T16:16:32;20.50;99.90
22532;DHT22;11432;46.924;7.114;2022-10-18T16:18:58;20.40;99.90
22532;DHT22;11432;46.924;7.114;2022-10-18T16:21:35;20.30;99.90
22532;DHT22;11432;46.924;7.114;2022-10-18T16:24:01;20.20;99.90
22532;DHT22;11432;46.924;7.114;2022-10-18T16:26:27;20.20;99.90
22532;DHT22;11432;46.924;7.114;2022-10-18T16:28:53;20.30;99.90
22532;DHT22;11432;46.924;7.114;2022-10-18T16:31:22;20.20;99.90
22532;DHT22;11432;46.924;7.114;2022-10-18T16:33:49;20.10;99.90
22532;DHT22;11432;46.924;7.114;2022-10-18T16:36:17;20.00;1.00
22532;DHT22;11432;46.924;7.114;2022-10-18T16:38:43;19.80;1.00
22532;DHT22;11432;46.924;7.114;2022-10-18T16:41:10;19.70;1.00
22532;DHT22;11432;46.924;7.114;2022-10-18T16:43:36;19.60;1.00
22532;DHT22;11432;46.924;7.114;2022-10-18T16:46:03;19.50;1.00
22532;DHT22;11432;46.924;7.114;2022-10-18T16:48:28;19.40;1.00
22532;DHT22;11432;46.924;7.114;2022-10-18T16:50:56;19.20;1.00
22532;DHT22;11432;46.924;7.114;2022-10-18T16:53:22;19.20;1.00
22532;DHT22;11432;46.924;7.114;2022-10-18T16:55:57;19.10;1.00
22532;DHT22;11432;46.924;7.114;2022-10-18T16:58:24;18.90;1.00
22532;DHT22;11432;46.924;7.114;2022-10-18T17:00:50;18.90;1.00
22532;DHT22;11432;46.924;7.114;2022-10-18T17:03:16;18.80;1.00
22532;DHT22;11432;46.924;7.114;2022-10-18T17:05:42;18.80;1.00
22532;DHT22;11432;46.924;7.114;2022-10-18T17:08:16;18.70;1.00
22532;DHT22;11432;46.924;7.114;2022-10-18T17:10:43;18.70;1.00
22532;DHT22;11432;46.924;7.114;2022-10-18T17:13:08;18.60;1.00
22532;DHT22;11432;46.924;7.114;2022-10-18T17:15:34;18.60;1.00
22532;DHT22;11432;46.924;7.114;2022-10-18T17:17:59;18.50;1.00
22532;DHT22;11432;46.924;7.114;2022-10-18T17:20:26;18.30;1.00
22532;DHT22;11432;46.924;7.114;2022-10-18T17:22:52;18.30;1.00
22532;DHT22;11432;46.924;7.114;2022-10-18T17:25:18;18.20;1.00
22532;DHT22;11432;46.924;7.114;2022-10-18T17:27:45;18.10;1.00
22532;DHT22;11432;46.924;7.114;2022-10-18T17:30:12;17.90;1.00
22532;DHT22;11432;46.924;7.114;2022-10-18T17:32:39;17.90;1.00
22532;DHT22;11432;46.924;7.114;2022-10-18T17:35:08;17.80;1.00
22532;DHT22;11432;46.924;7.114;2022-10-18T17:37:33;17.70;1.00
22532;DHT22;11432;46.924;7.114;2022-10-18T17:39:59;17.70;1.00
22532;DHT22;11432;46.924;7.114;2022-10-18T17:42:24;17.60;1.00
22532;DHT22;11432;46.924;7.114;2022-10-18T17:44:50;17.60;1.00
22532;DHT22;11432;46.924;7.114;2022-10-18T17:47:16;17.50;1.00
22532;DHT22;11432;46.924;7.114;2022-10-18T17:49:41;17.40;1.00
22532;DHT22;11432;46.924;7.114;2022-10-18T17:52:09;17.30;1.00
22532;DHT22;11432;46.924;7.114;2022-10-18T17:54:36;17.30;1.00
22532;DHT22;11432;46.924;7.114;2022-10-18T17:57:01;17.30;1.00
22532;DHT22;11432;46.924;7.114;2022-10-18T17:59:27;17.20;1.00
22532;DHT22;11432;46.924;7.114;2022-10-18T18:01:53;17.20;1.00
22532;DHT22;11432;46.924;7.114;2022-10-18T18:04:18;17.10;15.00
22532;DHT22;11432;46.924;7.114;2022-10-18T18:06:44;17.10;4.00
22532;DHT22;11432;46.924;7.114;2022-10-18T18:09:30;17.00;7.50
22532;DHT22;11432;46.924;7.114;2022-10-18T18:11:56;16.90;28.80
22532;DHT22;11432;46.924;7.114;2022-10-18T18:14:22;16.80;17.90
22532;DHT22;11432;46.924;7.114;2022-10-18T18:16:48;16.90;2.50
22532;DHT22;11432;46.924;7.114;2022-10-18T18:19:14;16.80;1.00
22532;DHT22;11432;46.924;7.114;2022-10-18T18:21:42;16.90;1.00
22532;DHT22;11432;46.924;7.114;2022-10-18T18:24:08;16.80;8.60
22532;DHT22;11432;46.924;7.114;2022-10-18T18:26:35;16.60;12.20
22532;DHT22;11432;46.924;7.114;2022-10-18T18:29:01;16.70;1.00
22532;DHT22;11432;46.924;7.114;2022-10-18T18:31:27;16.60;22.20